createdAt,value
2022-11-29T00:01:06.794Z,3.67
2022-11-29T00:03:35.241Z,4.10
2022-11-29T00:06:07.503Z,4.40
2022-11-29T00:08:34.631Z,4.57
2022-11-29T00:11:09.894Z,4.40
2022-11-29T00:13:36.572Z,4.43
2022-11-29T00:16:08.487Z,4.23
2022-11-29T00:18:35.390Z,3.60
2022-11-29T00:21:06.363Z,4.90
2022-11-29T00:23:33.489Z,3.20
2022-11-29T00:26:07.725Z,4.37
2022-11-29T00:28:35.482Z,4.73
2022-11-29T00:31:13.990Z,3.90
2022-11-29T00:33:40.699Z,3.93
2022-11-29T00:36:07.770Z,3.83
2022-11-29T00:38:34.443Z,4.33
2022-11-29T00:41:01.160Z,4.17
2022-11-29T00:43:27.811Z,3.50
2022-11-29T00:45:54.482Z,3.80
2022-11-29T00:48:21.231Z,3.83
2022-11-29T00:50:47.872Z,3.53
2022-11-29T00:53:14.680Z,4.10
2022-11-29T00:55:41.352Z,5.23
2022-11-29T00:58:08.020Z,3.87
2022-11-29T01:00:34.772Z,4.27
2022-11-29T01:03:02.225Z,4.17
2022-11-29T01:05:31.104Z,3.43
2022-11-29T01:07:57.904Z,3.47
2022-11-29T01:10:25.143Z,3.57
2022-11-29T01:12:51.842Z,3.27
2022-11-29T01:15:18.576Z,3.60
2022-11-29T01:17:46.575Z,3.20
2022-11-29T01:20:13.633Z,3.00
2022-11-29T01:22:40.642Z,4.10
2022-11-29T01:25:08.191Z,4.63
2022-11-29T01:27:35.199Z,4.20
2022-11-29T01:30:01.871Z,4.63
2022-11-29T01:32:28.592Z,4.23
2022-11-29T01:34:55.282Z,3.30
2022-11-29T01:37:21.974Z,3.03
2022-11-29T01:39:48.720Z,3.60
2022-11-29T01:42:15.522Z,4.80
2022-11-29T01:44:45.636Z,3.93
2022-11-29T01:47:12.789Z,4.17
2022-11-29T01:49:41.963Z,3.63
2022-11-29T01:52:13.641Z,3.70
2022-11-29T01:54:47.727Z,3.57
2022-11-29T01:57:14.607Z,3.90
2022-11-29T01:59:47.140Z,3.67
2022-11-29T02:02:21.206Z,2.63
2022-11-29T02:04:48.462Z,2.97
2022-11-29T02:07:15.709Z,3.17
2022-11-29T02:09:42.455Z,2.90
2022-11-29T02:12:47.653Z,3.17
2022-11-29T02:15:14.332Z,3.40
2022-11-29T02:17:49.994Z,3.00
2022-11-29T02:20:47.816Z,2.53
2022-11-29T02:23:33.042Z,2.90
2022-11-29T02:26:18.240Z,3.13
2022-11-29T02:28:57.082Z,2.60
2022-11-29T02:31:52.601Z,3.80
2022-11-29T02:34:40.839Z,4.17
2022-11-29T02:37:38.232Z,5.53
2022-11-29T02:40:10.862Z,5.93
2022-11-29T02:43:09.534Z,6.70
2022-11-29T02:45:38.612Z,5.00
2022-11-29T02:48:23.915Z,5.93
2022-11-29T02:51:07.001Z,6.73
2022-11-29T02:53:42.666Z,4.93
2022-11-29T02:56:22.421Z,6.20
2022-11-29T02:59:08.077Z,4.90
2022-11-29T03:02:07.527Z,6.37
2022-11-29T03:04:41.381Z,5.83
2022-11-29T03:07:24.214Z,6.77
2022-11-29T03:10:11.452Z,8.10
2022-11-29T03:12:42.174Z,6.40
2022-11-29T03:15:31.750Z,6.97
2022-11-29T03:18:27.323Z,5.50
2022-11-29T03:21:19.052Z,6.63
2022-11-29T03:23:48.503Z,7.80
2022-11-29T03:26:21.737Z,8.53
2022-11-29T03:28:56.635Z,10.13
2022-11-29T03:31:33.251Z,8.27
2022-11-29T03:34:42.308Z,7.60
2022-11-29T03:37:19.054Z,9.00
2022-11-29T03:40:16.182Z,6.70
2022-11-29T03:42:54.370Z,6.67
2022-11-29T03:45:26.519Z,4.30
2022-11-29T03:48:05.422Z,5.60
2022-11-29T03:50:42.436Z,6.03
2022-11-29T03:53:15.093Z,5.43
2022-11-29T03:55:57.661Z,5.43
2022-11-29T03:58:24.261Z,5.33
2022-11-29T04:00:50.921Z,5.07
2022-11-29T04:03:44.922Z,3.60
2022-11-29T04:06:17.550Z,4.10
2022-11-29T04:08:54.132Z,5.13
2022-11-29T04:11:54.943Z,4.03
2022-11-29T04:14:52.190Z,4.50
2022-11-29T04:17:49.763Z,4.57
2022-11-29T04:20:40.356Z,4.70
2022-11-29T04:23:33.094Z,4.77
2022-11-29T04:26:17.915Z,4.60
2022-11-29T04:29:09.172Z,3.90
2022-11-29T04:32:20.768Z,3.90
2022-11-29T04:35:19.432Z,4.53
2022-11-29T04:38:00.460Z,4.93
2022-11-29T04:40:42.388Z,4.87
2022-11-29T04:43:46.361Z,5.23
2022-11-29T04:46:19.205Z,6.37
2022-11-29T04:48:56.161Z,6.63
2022-11-29T04:51:44.111Z,6.60
2022-11-29T04:54:33.490Z,7.33
2022-11-29T04:57:11.883Z,7.97
2022-11-29T04:59:52.820Z,7.80
2022-11-29T05:02:22.579Z,9.50
2022-11-29T05:05:04.835Z,9.73
2022-11-29T05:07:33.971Z,8.93
2022-11-29T05:10:26.179Z,7.10
2022-11-29T05:13:23.873Z,6.37
2022-11-29T05:16:16.591Z,6.73
2022-11-29T05:18:58.406Z,9.00
2022-11-29T05:21:33.865Z,4.67
2022-11-29T05:24:31.402Z,4.37
2022-11-29T05:27:16.549Z,4.63
2022-11-29T05:30:05.021Z,4.40
2022-11-29T05:32:50.118Z,5.40
2022-11-29T05:35:38.429Z,4.93
2022-11-29T05:38:14.052Z,8.07
2022-11-29T05:40:49.722Z,7.37
2022-11-29T05:43:37.826Z,6.90
2022-11-29T05:46:58.567Z,5.73
2022-11-29T05:49:37.414Z,6.57
2022-11-29T05:52:12.917Z,5.80
2022-11-29T05:54:50.235Z,5.30
2022-11-29T05:57:23.034Z,6.67
2022-11-29T05:59:50.397Z,6.00
2022-11-29T06:02:26.055Z,5.77
2022-11-29T06:05:08.492Z,5.60
2022-11-29T06:07:44.778Z,7.07
2022-11-29T06:10:26.278Z,6.90
2022-11-29T06:13:11.497Z,7.40
2022-11-29T06:15:56.935Z,6.40
2022-11-29T06:18:48.935Z,6.00
2022-11-29T06:21:51.916Z,4.53
2022-11-29T06:24:36.520Z,5.20
2022-11-29T06:27:18.262Z,4.83
2022-11-29T06:29:53.093Z,4.90
2022-11-29T06:32:34.447Z,6.30
2022-11-29T06:35:09.996Z,10.27
2022-11-29T06:37:43.213Z,6.50
2022-11-29T06:40:16.414Z,6.40
2022-11-29T06:42:43.314Z,6.47
2022-11-29T06:45:14.692Z,7.20
2022-11-29T06:47:44.736Z,6.37
2022-11-29T06:50:48.321Z,7.37
2022-11-29T06:53:23.974Z,10.17
2022-11-29T06:56:03.007Z,12.77
2022-11-29T06:58:57.597Z,8.33
2022-11-29T07:01:40.202Z,5.20
2022-11-29T07:04:28.277Z,7.03
2022-11-29T07:06:55.306Z,7.40
2022-11-29T07:09:26.708Z,9.47
2022-11-29T07:11:53.748Z,8.80
2022-11-29T07:14:20.767Z,6.63
2022-11-29T07:17:06.905Z,6.70
2022-11-29T07:19:42.870Z,7.80
2022-11-29T07:22:37.468Z,7.20
2022-11-29T07:25:32.137Z,6.80
2022-11-29T07:28:16.805Z,5.73
2022-11-29T07:30:54.457Z,5.60
2022-11-29T07:33:33.645Z,5.97
2022-11-29T07:36:12.415Z,6.10
2022-11-29T07:39:14.506Z,5.83
2022-11-29T07:41:47.405Z,6.67
2022-11-29T07:44:28.615Z,41.20
2022-11-29T07:46:55.517Z,28.93
2022-11-29T07:49:22.278Z,11.13
2022-11-29T07:51:49.179Z,9.00
2022-11-29T07:54:18.488Z,8.30
2022-11-29T07:56:45.227Z,7.57
2022-11-29T07:59:13.071Z,11.30
2022-11-29T08:01:40.556Z,11.73
2022-11-29T08:04:08.518Z,12.37
2022-11-29T08:06:36.365Z,10.97
2022-11-29T08:09:03.899Z,8.97
2022-11-29T08:11:30.787Z,9.83
2022-11-29T08:13:58.904Z,9.20
2022-11-29T08:16:25.787Z,10.63
2022-11-29T08:18:55.616Z,7.57
2022-11-29T08:21:22.654Z,9.57
2022-11-29T08:23:50.295Z,11.10
2022-11-29T08:26:18.430Z,9.43
2022-11-29T08:28:45.307Z,8.83
2022-11-29T08:31:13.970Z,9.40
2022-11-29T08:33:42.975Z,9.20
2022-11-29T08:36:12.506Z,9.20
2022-11-29T08:38:39.347Z,8.23
2022-11-29T08:41:08.655Z,8.73
2022-11-29T08:43:35.768Z,10.20
2022-11-29T08:46:02.814Z,8.87
2022-11-29T08:48:29.619Z,9.60
2022-11-29T08:50:56.616Z,7.83
2022-11-29T08:53:42.209Z,8.70
2022-11-29T08:59:06.026Z,9.60
2022-11-29T09:01:32.909Z,9.13
2022-11-29T09:03:59.709Z,7.03
2022-11-29T09:06:32.187Z,8.40
2022-11-29T09:09:00.404Z,8.80
2022-11-29T09:11:28.695Z,9.53
2022-11-29T09:13:58.700Z,11.87
2022-11-29T09:16:27.633Z,9.07
2022-11-29T09:18:55.979Z,8.50
2022-11-29T09:21:24.997Z,7.73
2022-11-29T09:23:58.946Z,7.70
2022-11-29T09:26:32.008Z,8.13
2022-11-29T09:29:01.392Z,9.80
2022-11-29T09:31:29.906Z,10.27
2022-11-29T09:33:56.756Z,9.07
2022-11-29T09:36:28.109Z,8.43
2022-11-29T09:38:56.385Z,8.17
2022-11-29T09:41:35.903Z,8.30
2022-11-29T09:44:17.438Z,7.87
2022-11-29T09:47:10.345Z,8.00
2022-11-29T09:49:56.377Z,7.33
2022-11-29T09:52:49.717Z,9.67
2022-11-29T09:55:43.137Z,7.40
2022-11-29T09:58:14.217Z,8.13
2022-11-29T10:00:49.002Z,7.80
2022-11-29T10:03:29.948Z,9.50
2022-11-29T10:06:00.415Z,8.10
2022-11-29T10:08:42.104Z,6.30
2022-11-29T10:11:14.797Z,8.80
2022-11-29T10:13:45.825Z,5.70
2022-11-29T10:16:22.558Z,6.40
2022-11-29T10:18:59.069Z,8.00
2022-11-29T10:21:30.577Z,7.80
2022-11-29T10:24:04.862Z,7.30
2022-11-29T10:26:35.215Z,7.60
2022-11-29T10:29:02.292Z,7.10
2022-11-29T10:31:33.568Z,8.13
2022-11-29T10:34:02.055Z,7.73
2022-11-29T10:36:42.832Z,8.13
2022-11-29T10:39:20.037Z,8.13
2022-11-29T10:41:50.415Z,9.50
2022-11-29T10:44:17.220Z,7.87
2022-11-29T10:46:43.936Z,7.30
2022-11-29T10:49:15.098Z,9.80
2022-11-29T10:51:41.849Z,7.80
2022-11-29T10:54:40.474Z,8.33
2022-11-29T10:57:15.624Z,6.87
2022-11-29T10:59:42.426Z,8.23
2022-11-29T11:02:20.198Z,7.70
2022-11-29T11:04:48.219Z,6.40
2022-11-29T11:07:25.545Z,6.83
2022-11-29T11:09:56.205Z,7.40
2022-11-29T11:12:34.306Z,8.40
2022-11-29T11:15:28.224Z,9.17
2022-11-29T11:17:57.415Z,9.27
2022-11-29T11:20:25.335Z,8.87
2022-11-29T11:23:01.065Z,7.57
2022-11-29T11:25:30.347Z,7.57
2022-11-29T11:27:58.285Z,8.10
2022-11-29T11:30:28.256Z,7.20
2022-11-29T11:33:07.117Z,7.60
2022-11-29T11:35:33.938Z,6.03
2022-11-29T11:38:00.638Z,9.00
2022-11-29T11:40:30.560Z,9.13
2022-11-29T11:42:59.727Z,10.70
2022-11-29T11:45:33.804Z,7.20
2022-11-29T11:48:13.853Z,10.37
2022-11-29T11:50:49.706Z,7.80
2022-11-29T11:53:23.898Z,5.70
2022-11-29T11:55:58.167Z,5.60
2022-11-29T11:58:28.323Z,5.47
2022-11-29T12:01:05.659Z,6.00
2022-11-29T12:03:57.053Z,5.10
2022-11-29T12:06:29.555Z,5.30
2022-11-29T12:09:20.338Z,5.77
2022-11-29T12:12:05.814Z,6.00
2022-11-29T12:14:39.317Z,4.80
2022-11-29T12:17:35.940Z,6.40
2022-11-29T12:20:33.013Z,5.33
2022-11-29T12:23:11.979Z,7.00
2022-11-29T12:25:46.185Z,7.57
2022-11-29T12:28:19.980Z,7.33
2022-11-29T12:31:07.480Z,6.70
2022-11-29T12:34:09.615Z,4.77
2022-11-29T12:36:53.846Z,5.20
2022-11-29T12:39:39.229Z,5.90
2022-11-29T12:42:43.085Z,5.80
2022-11-29T12:45:37.774Z,5.77
2022-11-29T12:48:24.715Z,6.00
2022-11-29T12:51:09.989Z,5.80
2022-11-29T12:53:45.770Z,5.43
2022-11-29T12:56:22.377Z,5.33
2022-11-29T12:58:52.179Z,5.77
2022-11-29T13:01:45.069Z,5.33
2022-11-29T13:04:36.765Z,5.63
2022-11-29T13:07:13.977Z,5.20
2022-11-29T13:10:02.645Z,6.10
2022-11-29T13:13:14.016Z,6.03
2022-11-29T13:15:51.425Z,6.07
2022-11-29T13:18:42.263Z,6.50
2022-11-29T13:21:15.726Z,5.70
2022-11-29T13:24:08.394Z,6.27
2022-11-29T13:26:36.869Z,5.90
2022-11-29T13:29:03.785Z,7.50
2022-11-29T13:31:31.305Z,7.43
2022-11-29T13:33:59.557Z,6.87
2022-11-29T13:36:34.634Z,7.13
2022-11-29T13:39:27.425Z,7.33
2022-11-29T13:42:11.616Z,6.60
2022-11-29T13:45:08.087Z,7.97
2022-11-29T13:47:58.707Z,7.17
2022-11-29T13:50:51.548Z,6.00
2022-11-29T13:53:23.809Z,6.17
2022-11-29T13:56:00.165Z,7.10
2022-11-29T13:58:39.892Z,6.50
2022-11-29T14:01:09.165Z,6.77
2022-11-29T14:03:43.966Z,6.30
2022-11-29T14:06:24.296Z,6.40
2022-11-29T14:11:48.903Z,6.50
2022-11-29T14:14:23.201Z,6.67
2022-11-29T14:16:53.344Z,7.20
2022-11-29T14:19:32.836Z,7.13
2022-11-29T14:22:03.199Z,6.50
2022-11-29T14:24:32.876Z,6.80
2022-11-29T14:27:14.674Z,6.70
2022-11-29T14:29:47.589Z,6.60
2022-11-29T14:32:29.821Z,7.53
2022-11-29T14:35:11.841Z,7.07
2022-11-29T14:37:59.745Z,7.40
2022-11-29T14:40:41.840Z,6.67
2022-11-29T14:43:31.696Z,7.37
2022-11-29T14:46:16.916Z,7.17
2022-11-29T14:48:55.868Z,6.67
2022-11-29T14:51:25.404Z,8.27
2022-11-29T14:54:16.305Z,7.13
2022-11-29T14:56:45.143Z,6.00
2022-11-29T14:59:42.899Z,7.40
2022-11-29T15:02:33.131Z,7.40
2022-11-29T15:05:17.572Z,7.70
2022-11-29T15:07:57.503Z,8.00
2022-11-29T15:10:27.361Z,8.73
2022-11-29T15:12:54.224Z,7.17
2022-11-29T15:15:30.215Z,7.20
2022-11-29T15:18:18.378Z,7.00
2022-11-29T15:21:03.105Z,6.30
2022-11-29T15:23:40.195Z,7.30
2022-11-29T15:26:16.586Z,6.93
2022-11-29T15:28:43.460Z,6.90
2022-11-29T15:31:12.229Z,6.27
2022-11-29T15:33:43.995Z,8.73
2022-11-29T15:36:18.258Z,8.63
2022-11-29T15:38:57.014Z,26.80
2022-11-29T15:41:27.976Z,13.10
2022-11-29T15:43:58.902Z,14.80
2022-11-29T15:46:27.776Z,19.40
2022-11-29T15:48:54.662Z,16.80
2022-11-29T15:51:27.476Z,8.97
2022-11-29T15:54:13.851Z,6.00
2022-11-29T15:56:50.105Z,5.60
2022-11-29T15:59:37.534Z,5.60
2022-11-29T16:02:10.236Z,6.30
2022-11-29T16:04:43.576Z,6.80
2022-11-29T16:07:13.969Z,11.97
2022-11-29T16:09:47.056Z,7.20
2022-11-29T16:12:16.576Z,7.30
2022-11-29T16:14:52.173Z,12.40
2022-11-29T16:17:27.769Z,9.13
2022-11-29T16:20:13.833Z,6.20
2022-11-29T16:22:40.690Z,5.50
2022-11-29T16:25:16.275Z,7.03
2022-11-29T16:27:43.203Z,6.20
2022-11-29T16:30:26.702Z,6.63
2022-11-29T16:32:58.415Z,9.97
2022-11-29T16:35:33.329Z,10.17
2022-11-29T16:38:03.795Z,12.57
2022-11-29T16:40:32.429Z,7.07
2022-11-29T16:43:06.506Z,7.37
2022-11-29T16:45:38.443Z,6.20
2022-11-29T16:48:24.707Z,6.07
2022-11-29T16:51:10.457Z,5.17
2022-11-29T16:53:46.065Z,7.07
2022-11-29T16:56:17.675Z,7.60
2022-11-29T16:59:21.040Z,7.10
2022-11-29T17:01:34.722Z,6.60
2022-11-29T17:04:01.545Z,6.60
2022-11-29T17:06:29.016Z,7.73
2022-11-29T17:08:57.747Z,6.60
2022-11-29T17:11:24.806Z,5.30
2022-11-29T17:13:51.875Z,5.80
2022-11-29T17:16:20.977Z,7.13
2022-11-29T17:18:48.316Z,5.77
2022-11-29T17:21:26.539Z,6.37
2022-11-29T17:23:54.115Z,6.20
2022-11-29T17:26:21.686Z,5.70
2022-11-29T17:28:50.408Z,5.40
2022-11-29T17:31:22.753Z,8.37
2022-11-29T17:33:50.666Z,6.57
2022-11-29T17:36:19.462Z,6.37
2022-11-29T17:38:46.446Z,5.90
2022-11-29T17:41:15.809Z,7.40
2022-11-29T17:43:42.551Z,5.30
2022-11-29T17:46:19.119Z,5.70
2022-11-29T17:48:46.408Z,5.17
2022-11-29T17:51:43.868Z,5.73
2022-11-29T17:54:03.049Z,6.23
2022-11-29T17:56:30.016Z,6.33
2022-11-29T17:58:59.016Z,6.63
2022-11-29T18:01:28.137Z,7.70
2022-11-29T18:03:57.104Z,5.63
2022-11-29T18:06:26.378Z,6.10
2022-11-29T18:08:55.416Z,6.50
2022-11-29T18:11:24.881Z,7.27
2022-11-29T18:13:53.476Z,6.97
2022-11-29T18:16:22.418Z,6.30
2022-11-29T18:18:55.069Z,5.33
2022-11-29T18:21:22.231Z,5.30
2022-11-29T18:23:49.027Z,6.30
2022-11-29T18:26:18.626Z,7.00
2022-11-29T18:28:45.618Z,6.20
2022-11-29T18:31:30.305Z,6.60
2022-11-29T18:34:01.348Z,6.43
2022-11-29T18:36:33.486Z,6.47
2022-11-29T18:39:02.902Z,6.23
2022-11-29T18:41:30.877Z,7.60
2022-11-29T18:44:02.753Z,6.30
2022-11-29T18:46:32.459Z,4.90
2022-11-29T18:49:01.084Z,5.97
2022-11-29T18:51:29.087Z,6.07
2022-11-29T18:53:56.727Z,5.87
2022-11-29T18:56:25.607Z,6.00
2022-11-29T18:59:00.464Z,5.63
2022-11-29T19:01:30.258Z,5.07
2022-11-29T19:03:58.925Z,5.70
2022-11-29T19:06:35.411Z,6.40
2022-11-29T19:09:06.616Z,7.27
2022-11-29T19:11:33.736Z,7.10
2022-11-29T19:14:05.829Z,6.10
2022-11-29T19:16:34.178Z,6.70
2022-11-29T19:19:01.542Z,7.13
2022-11-29T19:21:31.297Z,6.43
2022-11-29T19:24:07.726Z,5.87
2022-11-29T19:26:34.627Z,5.03
2022-11-29T19:29:01.575Z,6.10
2022-11-29T19:31:28.598Z,6.67
2022-11-29T19:33:55.962Z,6.50
2022-11-29T19:36:30.734Z,6.17
2022-11-29T19:38:59.858Z,6.17
2022-11-29T19:41:31.929Z,5.60
2022-11-29T19:44:01.286Z,5.70
2022-11-29T19:46:30.837Z,6.57
2022-11-29T19:48:59.136Z,7.00
2022-11-29T19:51:26.936Z,6.77
2022-11-29T19:53:55.297Z,5.97
2022-11-29T19:56:22.717Z,7.00
2022-11-29T19:58:49.895Z,6.50
2022-11-29T20:01:19.498Z,7.07
2022-11-29T20:03:46.274Z,6.13
2022-11-29T20:06:13.737Z,7.00
2022-11-29T20:08:41.060Z,7.10
2022-11-29T20:11:14.785Z,6.73
2022-11-29T20:13:43.134Z,6.67
2022-11-29T20:16:12.269Z,6.70
2022-11-29T20:18:45.742Z,8.23
2022-11-29T20:21:18.905Z,6.50
2022-11-29T20:23:45.676Z,5.20
2022-11-29T20:26:20.299Z,6.30
2022-11-29T20:28:47.554Z,7.50
2022-11-29T20:31:17.284Z,6.67
2022-11-29T20:33:46.021Z,7.20
2022-11-29T20:36:36.761Z,5.67
2022-11-29T20:39:34.297Z,6.50
2022-11-29T20:42:28.982Z,7.10
2022-11-29T20:44:58.179Z,6.70
2022-11-29T20:47:28.550Z,6.30
2022-11-29T20:49:55.592Z,7.67
2022-11-29T20:52:27.915Z,6.63
2022-11-29T20:54:54.473Z,6.37
2022-11-29T20:57:21.630Z,8.00
2022-11-29T20:59:48.375Z,6.63
2022-11-29T21:02:15.372Z,7.00
2022-11-29T21:04:42.002Z,5.80
2022-11-29T21:07:08.677Z,6.63
2022-11-29T21:09:35.272Z,5.80
2022-11-29T21:12:02.080Z,6.10
2022-11-29T21:14:28.941Z,6.10
2022-11-29T21:16:56.831Z,5.63
2022-11-29T21:19:25.607Z,5.50
2022-11-29T21:22:41.846Z,5.60
2022-11-29T21:25:17.501Z,5.77
2022-11-29T21:27:44.470Z,6.03
2022-11-29T21:30:19.140Z,6.80
2022-11-29T21:32:46.222Z,6.30
2022-11-29T21:35:13.610Z,7.57
2022-11-29T21:37:40.631Z,10.60
2022-11-29T21:40:07.952Z,11.17
2022-11-29T21:42:37.385Z,7.60
2022-11-29T21:45:08.191Z,9.17
2022-11-29T21:47:39.938Z,6.20
2022-11-29T21:50:07.254Z,6.67
2022-11-29T21:52:33.998Z,6.60
2022-11-29T21:55:00.605Z,6.77
2022-11-29T21:57:27.226Z,6.90
2022-11-29T21:59:53.976Z,5.87
2022-11-29T22:02:20.629Z,6.13
2022-11-29T22:04:47.418Z,6.70
2022-11-29T22:07:14.063Z,6.53
2022-11-29T22:09:40.737Z,6.67
2022-11-29T22:12:32.017Z,6.20
2022-11-29T22:14:53.976Z,6.73
2022-11-29T22:17:20.574Z,7.53
2022-11-29T22:19:47.153Z,6.40
2022-11-29T22:22:13.774Z,6.67
2022-11-29T22:24:40.505Z,6.83
2022-11-29T22:27:07.201Z,7.50
2022-11-29T22:29:33.855Z,7.37
2022-11-29T22:32:01.311Z,6.03
2022-11-29T22:34:28.256Z,7.40
2022-11-29T22:36:55.356Z,6.87
2022-11-29T22:39:21.977Z,6.50
2022-11-29T22:41:53.952Z,7.07
2022-11-29T22:44:21.561Z,8.10
2022-11-29T22:46:48.403Z,6.97
2022-11-29T22:49:15.136Z,7.60
2022-11-29T22:51:41.951Z,6.70
2022-11-29T22:54:11.419Z,5.40
2022-11-29T22:56:40.335Z,6.30
2022-11-29T22:59:07.182Z,6.60
2022-11-29T23:01:38.250Z,6.30
2022-11-29T23:04:07.281Z,6.07
2022-11-29T23:06:51.831Z,7.37
2022-11-29T23:09:22.304Z,7.00
2022-11-29T23:11:53.783Z,6.67
2022-11-29T23:14:22.587Z,7.30
2022-11-29T23:16:49.529Z,6.77
2022-11-29T23:19:16.272Z,7.13
2022-11-29T23:21:45.601Z,6.70
2022-11-29T23:24:12.989Z,7.47
2022-11-29T23:26:42.678Z,7.47
2022-11-29T23:29:12.998Z,8.07
2022-11-29T23:31:40.221Z,7.90
2022-11-29T23:34:07.107Z,8.27
2022-11-29T23:36:33.799Z,8.50
2022-11-29T23:39:00.881Z,6.97
2022-11-29T23:41:27.557Z,8.20
2022-11-29T23:43:54.163Z,7.60
2022-11-29T23:46:23.317Z,7.27
2022-11-29T23:48:50.320Z,7.23
2022-11-29T23:51:17.509Z,7.00
2022-11-29T23:53:44.448Z,6.30
2022-11-29T23:56:14.469Z,6.30
2022-11-29T23:58:41.667Z,6.10
